Dixon, IL (61021)

7:24 AM CST on February 12, 2016 (GMT -0600)
M and J Dixon zone3 | | Change Station
CLOSE
Current Station
Personal Weather Station
Location: Dixon, IL
Elevation: 725 ft
Nearby Weather Stations
Active Advisory: Wind Chill Advisory

Elev 725 ft 41.86 °N, 89.48 °W | Updated 5 minutes ago

Overcast
Overcast
18.9 °F
Feels Like 14 °F
N
3.2
Wind Variable Wind from East

Today
High -- | Low -- °F
--% Chance of Precip.
Yesterday
High -- | Low -- °F
Precip. -- in
Pressure 30.16 in
Visibility 10.0 miles
Clouds Overcast 1900 ft
Windchill 14 °F
Dew Point 13 °F
Humidity 77%
Rainfall 0.00 in
Snow Depth Not available.
6:58 AM 5:26 PM
Waxing Crescent, 20% visible
METAR KSQI 121315Z 28010G15KT 10SM OVC019 M07/M11 A3016 RMK AO1
Pressure 30.16 in
Visibility 10.0 miles
Clouds Overcast 1900 ft
Windchill 14 °F
Dew Point 13 °F
Humidity 77%
Rainfall 0.00 in
Snow Depth Not available.
6:58 AM 5:26 PM
Waxing Crescent, 20% visible
METAR KSQI 121315Z 28010G15KT 10SM OVC019 M07/M11 A3016 RMK AO1

10-Day Weather Forecast

Almanac

Astronomy

Feb. 12, 2016 Rise Set
Actual Time
Civil Twilight
Nautical Twilight
Astronomical Twilight
Moon
Length of Visible Light
Length of Day
Tomorrow will be .
, % of the Moon is Illuminated

Today's Extremes

State Highs State Lows

Community

WunderPhotos

Upload Photos

1,892,309 photos uploaded!

WunderBlog® & News

Nearby

Air Quality

  Air Quality AQ Index Pollutant
Not available.

Snow Depth

Station Depth Elevation

Earthquake Activity

City Distance Mag. Time & Date
Minimum magnitude displayed is 2.5.

Coastal Water Temperatures

Place Temperature

Stations

Nearby Weather Stations

Station Location Temp. Windchill Dew Point Humidity Wind Precip. Elev Updated Type
                   

Watches & Warnings

Wind Chill Advisory
Issued: 3:53 AM CST Feb. 12, 2016 – National Weather Service

... Wind Chill Advisory in effect from midnight tonight to 9 am
CST Saturday...

The National Weather Service in Chicago has issued a Wind Chill
Advisory... which is in effect from midnight tonight to 9 am CST
Saturday.

* Wind chill values... around 20 below zero.

* Other impacts... bitter cold wind chills can cause frostbite to
exposed skin in as little as 30 minutes.

Precautionary/preparedness actions...

A Wind Chill Advisory means that the wind will combine with the
very cold air to generate low wind chills. This will result in
frost bite and lead to hypothermia if precautions are not taken.
If you must venture outdoors... make sure you wear a hat and
gloves.



Ratzer